Time;durP1;ratioP1;P1;durP2;ratioP2;P2;SDS_P1;SDS_P2;PMS_P1;PMS_P2;Temp;Humidity;BMP_temperature;BMP_pressure;BME280_temperature;BME280_humidity;BME280_pressure;Samples;Min_cycle;Max_cycle;Signal;HPM_P1;HPM_P2
2020/12/05 00:01:59;;;;;;;37.42;21.80;;;2.60;99.90;;;;;;5011827;28;20140;-68
2020/12/05 00:04:25;;;;;;;31.10;19.65;;;2.60;99.90;;;;;;5011470;28;20126;-69
2020/12/05 00:06:51;;;;;;;32.47;20.17;;;2.60;99.90;;;;;;5011879;28;20049;-69
2020/12/05 00:09:17;;;;;;;29.05;19.40;;;2.50;99.90;;;;;;5011950;28;20025;-68
2020/12/05 00:11:42;;;;;;;28.27;18.55;;;2.50;99.90;;;;;;5011922;28;20026;-69
2020/12/05 00:14:08;;;;;;;30.90;19.85;;;2.60;99.90;;;;;;5011097;28;20086;-69
2020/12/05 00:16:34;;;;;;;31.42;20.17;;;2.60;99.90;;;;;;5011596;28;20390;-69
2020/12/05 00:18:59;;;;;;;34.97;20.17;;;2.60;99.90;;;;;;5011731;28;20029;-68
2020/12/05 00:21:25;;;;;;;33.25;20.65;;;2.60;99.90;;;;;;5011830;28;20033;-68
2020/12/05 00:23:52;;;;;;;32.00;20.83;;;2.60;99.90;;;;;;5011169;28;20084;-68
2020/12/05 00:26:21;;;;;;;33.35;21.23;;;2.50;99.90;;;;;;5011874;28;20022;-68
2020/12/05 00:28:48;;;;;;;36.88;23.00;;;2.60;99.90;;;;;;5017062;28;20033;-68
2020/12/05 00:31:15;;;;;;;36.90;22.60;;;2.50;99.90;;;;;;5019071;28;20030;-68
2020/12/05 00:33:41;;;;;;;35.35;20.80;;;2.40;99.90;;;;;;5011456;28;20737;-68
2020/12/05 00:36:08;;;;;;;36.42;21.02;;;2.40;99.90;;;;;;5011618;28;20085;-68
2020/12/05 00:38:35;;;;;;;35.40;23.40;;;2.40;99.90;;;;;;5011675;28;20091;-69
2020/12/05 00:41:04;;;;;;;40.33;24.30;;;2.50;99.90;;;;;;5011786;28;20026;-69
2020/12/05 00:43:31;;;;;;;39.83;24.83;;;2.50;99.90;;;;;;5010885;28;20018;-69
2020/12/05 00:45:57;;;;;;;37.35;23.85;;;2.40;99.90;;;;;;5011472;28;20025;-69
2020/12/05 00:48:22;;;;;;;40.45;23.10;;;2.40;99.90;;;;;;5011274;28;20030;-69
2020/12/05 00:50:48;;;;;;;40.90;24.73;;;2.30;99.90;;;;;;5011426;28;20030;-69
2020/12/05 00:53:13;;;;;;;33.15;22.25;;;2.30;99.90;;;;;;5010794;28;20050;-69
2020/12/05 00:55:39;;;;;;;40.63;25.05;;;2.30;99.90;;;;;;5011696;28;20030;-70
2020/12/05 00:58:05;;;;;;;35.30;23.33;;;2.30;99.90;;;;;;5011451;28;20056;-69
2020/12/05 01:00:30;;;;;;;39.40;23.77;;;2.40;99.90;;;;;;5010151;28;20115;-69
2020/12/05 01:02:56;;;;;;;38.70;23.90;;;2.40;99.90;;;;;;5010803;28;20030;-68
2020/12/05 01:05:22;;;;;;;36.38;22.48;;;2.40;99.90;;;;;;5011294;28;20041;-68
2020/12/05 01:07:47;;;;;;;33.45;22.40;;;2.40;99.90;;;;;;5011706;28;20018;-68
2020/12/05 01:10:13;;;;;;;36.67;21.17;;;2.50;99.90;;;;;;5011431;28;20534;-68
2020/12/05 01:12:39;;;;;;;34.20;21.90;;;2.40;99.90;;;;;;5010704;28;20030;-68
2020/12/05 01:15:05;;;;;;;32.63;20.23;;;2.40;99.90;;;;;;5011722;28;20033;-69
2020/12/05 01:17:32;;;;;;;33.97;21.05;;;2.40;99.90;;;;;;5011311;28;20045;-68
2020/12/05 01:19:58;;;;;;;29.55;20.30;;;2.50;99.90;;;;;;5010851;28;20026;-68
2020/12/05 01:22:24;;;;;;;30.23;19.65;;;2.40;99.90;;;;;;5011212;28;20030;-68
2020/12/05 01:24:51;;;;;;;36.17;22.55;;;2.40;99.90;;;;;;5010498;28;20036;-68
2020/12/05 01:27:17;;;;;;;35.70;22.02;;;2.50;99.90;;;;;;5011361;28;20510;-68
2020/12/05 01:29:43;;;;;;;33.33;20.50;;;2.30;99.90;;;;;;5011461;28;20030;-68
2020/12/05 01:32:09;;;;;;;31.98;19.63;;;2.30;99.90;;;;;;5014492;28;20018;-68
2020/12/05 01:34:35;;;;;;;31.50;19.50;;;2.30;99.90;;;;;;5013937;28;20392;-68
2020/12/05 01:37:00;;;;;;;28.95;18.05;;;2.30;99.90;;;;;;5013516;28;20036;-68
2020/12/05 01:39:26;;;;;;;29.35;18.75;;;2.30;99.90;;;;;;5014809;28;20102;-68
2020/12/05 01:41:52;;;;;;;28.55;18.20;;;2.20;99.90;;;;;;5014804;28;20107;-68
2020/12/05 01:44:18;;;;;;;26.58;17.58;;;2.20;99.90;;;;;;5013835;28;20388;-68
2020/12/05 01:46:47;;;;;;;26.23;17.67;;;2.10;99.90;;;;;;5014066;28;20404;-68
2020/12/05 01:49:16;;;;;;;25.02;17.30;;;2.10;99.90;;;;;;5014358;28;20026;-68
2020/12/05 01:51:42;;;;;;;26.10;16.08;;;2.10;99.90;;;;;;5014383;28;20488;-69
2020/12/05 01:54:09;;;;;;;29.17;17.27;;;2.10;99.90;;;;;;5013803;28;20029;-68
2020/12/05 01:56:35;;;;;;;23.15;15.57;;;2.10;99.90;;;;;;5014418;28;20480;-69
2020/12/05 01:59:01;;;;;;;27.05;17.13;;;1.90;99.90;;;;;;5014241;28;20068;-70
2020/12/05 02:01:29;;;;;;;27.35;17.30;;;1.90;99.90;;;;;;5014070;28;20060;-68
2020/12/05 02:04:01;;;;;;;26.20;17.92;;;2.10;99.90;;;;;;5013507;28;20050;-68
2020/12/05 02:06:42;;;;;;;30.10;18.80;;;2.10;99.90;;;;;;5014129;28;20026;-68
2020/12/05 02:09:30;;;;;;;25.17;17.73;;;2.00;99.90;;;;;;5014209;28;20028;-67
2020/12/05 02:12:26;;;;;;;31.85;20.23;;;1.80;99.90;;;;;;5014081;28;20036;-69
2020/12/05 02:14:59;;;;;;;25.27;17.95;;;1.80;99.90;;;;;;5004055;28;20066;-69
2020/12/05 02:17:25;;;;;;;29.40;20.00;;;1.90;99.90;;;;;;5013888;28;20018;-68
2020/12/05 02:19:52;;;;;;;34.35;19.52;;;2.00;99.90;;;;;;5013734;28;20030;-68
2020/12/05 02:22:40;;;;;;;28.92;19.08;;;2.00;99.90;;;;;;5013953;28;20026;-68
2020/12/05 02:25:06;;;;;;;30.88;20.10;;;1.90;99.90;;;;;;5014098;28;20026;-68
2020/12/05 02:27:33;;;;;;;28.80;19.00;;;1.90;99.90;;;;;;5013890;28;20076;-68
2020/12/05 02:29:59;;;;;;;32.78;19.55;;;1.90;99.90;;;;;;5012414;28;20057;-68
2020/12/05 02:32:25;;;;;;;30.80;18.17;;;1.90;99.90;;;;;;5013415;28;20054;-68
2020/12/05 02:34:51;;;;;;;27.00;17.80;;;2.00;99.90;;;;;;5012742;28;20397;-68
2020/12/05 02:37:24;;;;;;;27.77;19.00;;;2.00;99.90;;;;;;5013786;28;20026;-68
2020/12/05 02:39:51;;;;;;;25.25;18.33;;;1.90;99.90;;;;;;5013502;28;20523;-68
2020/12/05 02:42:17;;;;;;;23.73;17.33;;;2.10;99.90;;;;;;5012425;28;20458;-68
2020/12/05 02:44:46;;;;;;;21.88;16.30;;;2.00;99.90;;;;;;5012730;28;20013;-68
2020/12/05 02:47:13;;;;;;;26.75;17.58;;;2.10;99.90;;;;;;5034023;23;20128;-70
2020/12/05 02:49:38;;;;;;;25.33;18.30;;;2.00;99.90;;;;;;5041078;28;20028;-70
2020/12/05 02:52:04;;;;;;;26.60;17.48;;;2.10;99.90;;;;;;5052973;28;20028;-70
2020/12/05 02:54:31;;;;;;;27.90;18.67;;;2.00;99.90;;;;;;5052433;28;20090;-70
2020/12/05 02:57:00;;;;;;;31.13;20.60;;;2.10;99.90;;;;;;5052665;28;20029;-70
2020/12/05 02:59:27;;;;;;;31.58;20.90;;;2.10;99.90;;;;;;5045021;28;20026;-70
2020/12/05 03:01:53;;;;;;;29.00;18.65;;;2.10;99.90;;;;;;5032708;28;20075;-70
2020/12/05 03:04:19;;;;;;;27.00;17.70;;;2.10;99.90;;;;;;5032298;28;20398;-70
2020/12/05 03:06:45;;;;;;;29.48;19.92;;;2.00;99.90;;;;;;5032779;28;20105;-70
2020/12/05 03:09:11;;;;;;;29.20;19.85;;;2.00;99.90;;;;;;5032953;28;20034;-70
2020/12/05 03:11:36;;;;;;;31.38;19.30;;;2.00;99.90;;;;;;5033123;28;20136;-70
2020/12/05 03:14:02;;;;;;;27.98;19.08;;;2.10;99.90;;;;;;5033087;28;20053;-70
2020/12/05 03:16:28;;;;;;;31.23;19.45;;;2.00;99.90;;;;;;5032706;28;20447;-70
2020/12/05 03:18:54;;;;;;;27.42;19.10;;;2.10;99.90;;;;;;5032486;28;20041;-69
2020/12/05 03:21:19;;;;;;;27.65;17.95;;;2.20;99.90;;;;;;5032635;28;20097;-69
2020/12/05 03:23:48;;;;;;;28.02;19.13;;;2.10;99.90;;;;;;5031974;28;20056;-69
2020/12/05 03:26:14;;;;;;;29.05;19.77;;;2.30;99.90;;;;;;5032772;28;20053;-71
2020/12/05 03:28:40;;;;;;;29.50;19.67;;;2.30;99.90;;;;;;5031915;28;20069;-70
2020/12/05 03:31:07;;;;;;;31.83;20.40;;;2.20;99.90;;;;;;5012518;28;20080;-72
2020/12/05 03:33:36;;;;;;;28.67;19.65;;;2.30;99.90;;;;;;5011994;28;20056;-70
2020/12/05 03:36:02;;;;;;;30.85;19.98;;;2.30;99.90;;;;;;5012209;28;20487;-70
2020/12/05 03:38:28;;;;;;;30.20;19.50;;;2.30;99.90;;;;;;5012369;28;20037;-70
2020/12/05 03:40:53;;;;;;;27.55;19.38;;;2.30;99.90;;;;;;5011320;28;20018;-70
2020/12/05 03:43:19;;;;;;;30.02;20.73;;;2.30;99.90;;;;;;5011330;28;20030;-70
2020/12/05 03:45:45;;;;;;;30.80;21.88;;;2.30;99.90;;;;;;5012276;28;20029;-70
2020/12/05 03:48:12;;;;;;;24.92;18.73;;;2.30;99.90;;;;;;5012153;28;20065;-70
2020/12/05 03:50:39;;;;;;;30.83;19.65;;;2.30;99.90;;;;;;5011978;28;20048;-70
2020/12/05 03:53:05;;;;;;;25.20;17.98;;;2.30;99.90;;;;;;5011163;28;20025;-71
2020/12/05 03:55:30;;;;;;;26.63;17.70;;;2.20;99.90;;;;;;5012087;28;20168;-71
2020/12/05 03:57:56;;;;;;;25.85;17.48;;;2.20;99.90;;;;;;5011631;28;20546;-69
2020/12/05 04:00:22;;;;;;;26.13;17.60;;;2.30;99.90;;;;;;5026724;28;20032;-71
2020/12/05 04:02:48;;;;;;;25.60;18.20;;;2.30;99.90;;;;;;5030993;28;20104;-71
2020/12/05 04:05:13;;;;;;;25.58;17.50;;;2.20;99.90;;;;;;5031587;28;20021;-68
2020/12/05 04:07:39;;;;;;;24.90;17.67;;;2.30;99.90;;;;;;5031390;28;20558;-69
2020/12/05 04:10:05;;;;;;;23.38;16.80;;;2.30;99.90;;;;;;5031867;28;20088;-68
2020/12/05 04:12:31;;;;;;;25.77;18.25;;;2.30;99.90;;;;;;5031362;28;20230;-69
2020/12/05 04:14:56;;;;;;;28.98;19.23;;;2.40;99.90;;;;;;5044782;28;20031;-68
2020/12/05 04:17:22;;;;;;;28.80;18.58;;;2.30;99.90;;;;;;5047194;28;20028;-68
2020/12/05 04:19:48;;;;;;;23.63;17.08;;;2.30;99.90;;;;;;5046822;28;20029;-69
2020/12/05 04:22:14;;;;;;;24.35;16.70;;;2.20;99.90;;;;;;5047440;28;20498;-69
2020/12/05 04:24:40;;;;;;;23.50;17.38;;;2.10;99.90;;;;;;5045944;28;20028;-68
2020/12/05 04:27:06;;;;;;;26.35;18.10;;;2.20;99.90;;;;;;5035729;28;20480;-68
2020/12/05 04:29:32;;;;;;;24.67;17.15;;;2.20;99.90;;;;;;5031532;28;20037;-69
2020/12/05 04:31:57;;;;;;;25.10;17.15;;;2.20;99.90;;;;;;5031515;28;20030;-68
2020/12/05 04:34:23;;;;;;;22.77;16.55;;;2.10;99.90;;;;;;5029950;28;20029;-70
2020/12/05 04:36:49;;;;;;;20.92;16.40;;;2.00;99.90;;;;;;5030990;28;20033;-70
2020/12/05 04:39:14;;;;;;;24.35;16.45;;;2.00;99.90;;;;;;5031209;28;20021;-70
2020/12/05 04:41:42;;;;;;;24.98;16.00;;;2.00;99.90;;;;;;5030981;28;20108;-68
2020/12/05 04:44:11;;;;;;;21.58;15.13;;;1.90;99.90;;;;;;5030393;28;20049;-68
2020/12/05 04:46:37;;;;;;;23.13;16.63;;;1.90;99.90;;;;;;5031041;28;20018;-70
2020/12/05 04:49:04;;;;;;;28.08;17.88;;;2.00;99.90;;;;;;5030789;28;20574;-69
2020/12/05 04:51:38;;;;;;;24.05;17.63;;;1.90;99.90;;;;;;5030990;28;20038;-70
2020/12/05 04:54:05;;;;;;;29.52;20.10;;;1.80;99.90;;;;;;5030244;28;20029;-70
2020/12/05 04:56:39;;;;;;;27.65;18.00;;;1.80;99.90;;;;;;5031043;28;20100;-69
2020/12/05 04:59:11;;;;;;;29.25;19.58;;;1.80;99.90;;;;;;5030291;28;20116;-69
2020/12/05 05:01:38;;;;;;;28.45;19.10;;;1.70;99.90;;;;;;5030953;28;20519;-69
2020/12/05 05:04:05;;;;;;;28.20;18.48;;;1.80;99.90;;;;;;5030500;28;20117;-69
2020/12/05 05:06:32;;;;;;;26.25;18.23;;;1.70;99.90;;;;;;5034144;28;20028;-69
2020/12/05 05:08:58;;;;;;;24.75;16.95;;;1.70;99.90;;;;;;5034806;28;20363;-69
2020/12/05 05:11:28;;;;;;;23.17;15.57;;;1.70;99.90;;;;;;5034770;28;20021;-69
2020/12/05 05:13:59;;;;;;;26.73;15.95;;;1.70;99.90;;;;;;5033968;28;20067;-69
2020/12/05 05:16:28;;;;;;;22.27;15.43;;;1.70;99.90;;;;;;5034863;28;20029;-69
2020/12/05 05:18:54;;;;;;;22.50;14.55;;;1.70;99.90;;;;;;5032861;28;20113;-70
2020/12/05 05:21:39;;;;;;;25.92;15.32;;;1.70;99.90;;;;;;5033602;28;20022;-70
2020/12/05 05:24:21;;;;;;;22.38;14.45;;;1.70;99.90;;;;;;5035199;28;20087;-69
2020/12/05 05:27:08;;;;;;;22.60;14.32;;;1.70;99.90;;;;;;5034479;28;20018;-69
2020/12/05 05:29:43;;;;;;;22.13;14.40;;;1.70;99.90;;;;;;5032866;28;20053;-69
2020/12/05 05:32:22;;;;;;;21.08;14.40;;;1.80;99.90;;;;;;5035464;28;20100;-69
2020/12/05 05:34:48;;;;;;;21.45;14.57;;;1.80;99.90;;;;;;5033471;28;20465;-69
2020/12/05 05:37:18;;;;;;;22.88;15.18;;;1.80;99.90;;;;;;5034447;28;20025;-69
2020/12/05 05:39:50;;;;;;;21.10;14.25;;;1.80;99.90;;;;;;5034412;28;20080;-70
2020/12/05 05:42:31;;;;;;;19.75;13.55;;;1.80;99.90;;;;;;5034054;28;20086;-70
2020/12/05 05:45:25;;;;;;;18.33;12.63;;;1.90;99.90;;;;;;5033842;28;20029;-69
2020/12/05 05:47:53;;;;;;;22.75;14.75;;;1.90;99.90;;;;;;5033982;28;20025;-69
2020/12/05 05:50:26;;;;;;;20.77;14.40;;;1.90;99.90;;;;;;5033940;28;20033;-69
2020/12/05 05:52:56;;;;;;;20.27;12.70;;;1.90;99.90;;;;;;5033235;28;20033;-69
2020/12/05 05:55:38;;;;;;;22.60;13.10;;;1.90;99.90;;;;;;5034143;28;20022;-69
2020/12/05 05:58:05;;;;;;;17.60;11.82;;;1.90;99.90;;;;;;5033856;28;20071;-69
2020/12/05 06:00:37;;;;;;;18.83;12.07;;;1.80;99.90;;;;;;5033942;28;20082;-70
2020/12/05 06:03:12;;;;;;;;;;;1.80;99.90;;;;;;5033928;28;20021;-72
2020/12/05 06:05:43;;;;;;;16.63;11.77;;;1.70;99.90;;;;;;5033911;28;19912;-70
2020/12/05 06:08:15;;;;;;;16.70;11.85;;;1.70;99.90;;;;;;5033899;28;20033;-70
2020/12/05 06:10:42;;;;;;;18.90;13.10;;;1.70;99.90;;;;;;5033969;28;20050;-68
2020/12/05 06:13:10;;;;;;;26.25;15.93;;;1.60;99.90;;;;;;5031919;28;20120;-69
2020/12/05 06:15:36;;;;;;;23.58;14.93;;;1.70;99.90;;;;;;5033709;28;20610;-70
2020/12/05 06:18:02;;;;;;;19.38;13.18;;;1.60;99.90;;;;;;5033840;28;20097;-68
2020/12/05 06:20:35;;;;;;;17.45;12.48;;;1.60;99.90;;;;;;5033747;28;20044;-68
2020/12/05 06:23:03;;;;;;;21.27;13.15;;;1.50;99.90;;;;;;5033081;28;20018;-69
2020/12/05 06:25:30;;;;;;;19.90;12.77;;;1.40;99.90;;;;;;5033573;28;20033;-69
2020/12/05 06:28:01;;;;;;;16.40;11.93;;;1.40;99.90;;;;;;5033659;28;20376;-69
2020/12/05 06:30:27;;;;;;;22.08;14.10;;;1.30;99.90;;;;;;5034277;28;20029;-69
2020/12/05 06:32:55;;;;;;;23.42;15.10;;;1.30;99.90;;;;;;5033043;28;20637;-69
2020/12/05 06:35:24;;;;;;;22.55;14.38;;;1.30;99.90;;;;;;5033181;28;20017;-69
2020/12/05 06:37:54;;;;;;;25.00;15.60;;;1.20;99.90;;;;;;5028786;28;20033;-69
2020/12/05 06:40:21;;;;;;;24.08;14.88;;;1.20;99.90;;;;;;5031499;28;20475;-70
2020/12/05 06:42:49;;;;;;;24.10;15.25;;;1.20;99.90;;;;;;5023971;28;20038;-71
2020/12/05 06:45:27;;;;;;;26.88;16.48;;;1.20;99.90;;;;;;5029115;28;20111;-71
2020/12/05 06:48:08;;;;;;;27.45;17.98;;;1.20;99.90;;;;;;5032898;28;20633;-70
2020/12/05 06:50:47;;;;;;;24.65;15.40;;;1.30;99.90;;;;;;5032942;28;20033;-70
2020/12/05 06:53:21;;;;;;;23.95;16.05;;;1.20;99.90;;;;;;5031930;28;20053;-71
2020/12/05 06:55:54;;;;;;;29.23;19.08;;;1.20;99.90;;;;;;5032168;28;20025;-71
2020/12/05 06:58:31;;;;;;;31.98;19.60;;;1.20;99.90;;;;;;5032613;28;20025;-70
2020/12/05 07:00:57;;;;;;;26.55;17.42;;;1.30;99.90;;;;;;5032692;28;20498;-71
2020/12/05 07:03:31;;;;;;;29.23;19.35;;;1.30;99.90;;;;;;5031426;28;20025;-71
2020/12/05 07:05:58;;;;;;;29.48;18.13;;;1.30;99.90;;;;;;5030997;28;20104;-69
2020/12/05 07:08:23;;;;;;;25.20;16.83;;;1.30;99.90;;;;;;5032678;28;20375;-70
2020/12/05 07:10:53;;;;;;;29.83;19.90;;;1.30;99.90;;;;;;5032540;28;20037;-70
2020/12/05 07:13:25;;;;;;;29.08;19.50;;;1.30;99.90;;;;;;5031614;28;20025;-70
2020/12/05 07:15:51;;;;;;;28.60;18.80;;;1.30;99.90;;;;;;5032304;28;20096;-69
2020/12/05 07:18:25;;;;;;;27.92;19.25;;;1.30;99.90;;;;;;5032343;28;20228;-70
2020/12/05 07:20:52;;;;;;;29.00;20.10;;;1.30;99.90;;;;;;5032188;28;20021;-71
2020/12/05 07:23:18;;;;;;;25.98;19.25;;;1.30;99.90;;;;;;5031795;28;20132;-71
2020/12/05 07:25:43;;;;;;;27.55;19.27;;;1.30;99.90;;;;;;5032382;28;20143;-71
2020/12/05 07:28:09;;;;;;;29.35;20.05;;;1.40;99.90;;;;;;5031825;28;20025;-71
2020/12/05 07:30:35;;;;;;;24.77;18.38;;;1.40;99.90;;;;;;5032188;28;20076;-72
2020/12/05 07:33:05;;;;;;;31.25;18.48;;;1.40;99.90;;;;;;5031231;28;20436;-69
2020/12/05 07:35:30;;;;;;;32.13;19.63;;;1.50;99.90;;;;;;5031664;28;20022;-70
2020/12/05 07:37:56;;;;;;;28.63;18.35;;;1.50;99.90;;;;;;5032132;28;20028;-70
2020/12/05 07:40:28;;;;;;;26.23;17.85;;;1.50;99.90;;;;;;5032027;28;20100;-70
2020/12/05 07:42:54;;;;;;;;;;;1.50;99.90;;;;;;5032402;28;20025;-71
2020/12/05 07:45:21;;;;;;;23.48;16.52;;;1.50;99.90;;;;;;5030820;28;19909;-69
2020/12/05 07:47:47;;;;;;;25.73;16.95;;;1.60;99.90;;;;;;5030953;28;20514;-71
2020/12/05 07:50:13;;;;;;;27.80;18.27;;;1.60;99.90;;;;;;5032682;28;20505;-71
2020/12/05 07:52:41;;;;;;;32.17;19.30;;;1.70;99.90;;;;;;5031117;28;20120;-70
2020/12/05 07:55:09;;;;;;;33.00;21.25;;;1.70;99.90;;;;;;5031999;28;20024;-69
2020/12/05 07:57:37;;;;;;;36.05;22.90;;;1.80;99.90;;;;;;5032028;28;20037;-69
2020/12/05 08:00:13;;;;;;;29.88;18.35;;;2.10;99.90;;;;;;5032120;28;20515;-69
2020/12/05 08:02:56;;;;;;;26.58;18.67;;;2.10;99.90;;;;;;5032429;28;20021;-69
2020/12/05 08:05:40;;;;;;;23.08;15.48;;;2.20;99.90;;;;;;5039880;28;20472;-70
2020/12/05 08:08:06;;;;;;;21.42;15.23;;;2.10;99.90;;;;;;5050824;28;20026;-69
2020/12/05 08:10:34;;;;;;;21.98;15.65;;;2.20;99.90;;;;;;5051141;28;20068;-69
2020/12/05 08:13:18;;;;;;;32.17;20.13;;;2.20;99.90;;;;;;5039188;28;20057;-71
2020/12/05 08:15:46;;;;;;;27.58;19.90;;;2.20;99.90;;;;;;5035268;28;20033;-68
2020/12/05 08:18:14;;;;;;;27.85;17.85;;;2.20;99.90;;;;;;5032469;28;20021;-67
2020/12/05 08:20:44;;;;;;;23.83;15.95;;;2.20;99.90;;;;;;5031372;28;20029;-72
2020/12/05 08:23:30;;;;;;;23.85;15.15;;;2.30;99.90;;;;;;5030445;28;20076;-71
2020/12/05 08:26:05;;;;;;;22.63;15.73;;;2.40;99.90;;;;;;5030432;28;20026;-69
2020/12/05 08:28:36;;;;;;;23.95;16.40;;;2.30;99.90;;;;;;5031310;28;20491;-69
2020/12/05 08:31:04;;;;;;;24.13;17.45;;;2.40;99.90;;;;;;5031091;28;20048;-70
2020/12/05 08:33:29;;;;;;;24.83;16.13;;;2.40;99.90;;;;;;5030878;28;20104;-71
2020/12/05 08:35:55;;;;;;;27.00;15.57;;;2.60;99.90;;;;;;5030542;28;20097;-71
2020/12/05 08:38:23;;;;;;;25.13;16.17;;;2.60;99.90;;;;;;5030577;28;20033;-70
2020/12/05 08:41:01;;;;;;;26.30;17.25;;;2.80;99.90;;;;;;5036091;28;20488;-71
2020/12/05 08:43:28;;;;;;;24.85;17.17;;;2.80;99.90;;;;;;5034763;28;20025;-69
2020/12/05 08:45:53;;;;;;;25.13;18.90;;;2.70;99.90;;;;;;5035270;28;20092;-70
2020/12/05 08:48:20;;;;;;;25.92;17.52;;;2.70;99.90;;;;;;5035188;28;20507;-70
2020/12/05 08:50:46;;;;;;;24.00;17.85;;;2.80;99.90;;;;;;5055569;22;20099;-70
2020/12/05 08:53:14;;;;;;;24.50;18.25;;;2.90;99.90;;;;;;5041582;28;20022;-70
2020/12/05 08:55:45;;;;;;;24.60;18.38;;;2.90;99.90;;;;;;5035211;28;20021;-70
2020/12/05 08:58:11;;;;;;;24.58;17.20;;;2.90;99.90;;;;;;5034882;28;20761;-71
2020/12/05 09:00:37;;;;;;;25.98;17.73;;;3.00;99.90;;;;;;5023344;28;20022;-71
2020/12/05 09:03:03;;;;;;;23.17;18.10;;;3.00;99.90;;;;;;5034335;28;20091;-71
2020/12/05 09:05:29;;;;;;;21.52;16.85;;;3.00;99.90;;;;;;5034993;28;20029;-71
2020/12/05 09:07:59;;;;;;;21.75;16.25;;;3.00;99.90;;;;;;5035518;28;20034;-70
2020/12/05 09:10:27;;;;;;;22.88;16.00;;;3.00;99.90;;;;;;5022445;28;20038;-71
2020/12/05 09:13:03;;;;;;;21.15;16.10;;;3.20;99.90;;;;;;5023447;28;20075;-69
2020/12/05 09:15:28;;;;;;;20.45;16.38;;;3.20;99.90;;;;;;5023823;28;20051;-70
2020/12/05 09:17:58;;;;;;;20.80;16.42;;;3.20;99.90;;;;;;5023974;28;20141;-71
2020/12/05 09:20:23;;;;;;;19.40;15.30;;;3.30;99.90;;;;;;5022249;28;20031;-72
2020/12/05 09:22:53;;;;;;;19.45;14.98;;;3.40;99.90;;;;;;5024051;28;20021;-71
2020/12/05 09:25:36;;;;;;;18.65;15.05;;;3.50;99.90;;;;;;5022746;28;20032;-70
2020/12/05 09:28:09;;;;;;;18.50;14.15;;;3.60;99.90;;;;;;5017112;28;20121;-70
2020/12/05 09:30:35;;;;;;;18.23;14.48;;;3.50;99.90;;;;;;5031060;28;20513;-71
2020/12/05 09:33:08;;;;;;;18.20;14.00;;;3.70;99.90;;;;;;5033831;28;20033;-72
2020/12/05 09:35:34;;;;;;;19.23;12.88;;;3.80;99.90;;;;;;5034342;28;20032;-71
2020/12/05 09:38:02;;;;;;;17.33;13.05;;;3.90;99.90;;;;;;5034613;28;20033;-74
2020/12/05 09:40:28;;;;;;;16.23;13.48;;;3.90;99.90;;;;;;5035176;28;20117;-73
2020/12/05 09:42:54;;;;;;;17.08;13.38;;;4.00;99.90;;;;;;5033945;28;20079;-73
2020/12/05 09:45:19;;;;;;;17.65;13.77;;;4.10;99.90;;;;;;5034329;28;20025;-74
2020/12/05 09:47:45;;;;;;;16.92;12.50;;;4.20;99.90;;;;;;5034931;28;20083;-72
2020/12/05 09:50:12;;;;;;;17.90;14.35;;;4.30;99.90;;;;;;5035903;28;20041;-72
2020/12/05 09:52:38;;;;;;;14.93;11.90;;;4.30;99.90;;;;;;5035970;28;20029;-71
2020/12/05 09:55:04;;;;;;;20.40;14.05;;;4.30;99.90;;;;;;5037316;28;20029;-70
2020/12/05 09:57:30;;;;;;;20.70;14.07;;;4.40;99.90;;;;;;5041725;28;20041;-71
2020/12/05 09:59:56;;;;;;;19.10;14.25;;;4.40;99.90;;;;;;5038891;28;20033;-71
2020/12/05 10:02:22;;;;;;;16.63;13.15;;;4.30;99.90;;;;;;5034906;28;20589;-71
2020/12/05 10:04:47;;;;;;;16.38;12.85;;;4.30;99.90;;;;;;5034296;28;20030;-72
2020/12/05 10:07:13;;;;;;;20.35;13.68;;;4.30;99.90;;;;;;5033759;28;20072;-73
2020/12/05 10:09:39;;;;;;;18.73;14.20;;;4.30;99.90;;;;;;5033912;28;20383;-73
2020/12/05 10:12:04;;;;;;;21.10;15.48;;;4.40;99.90;;;;;;5033893;28;20034;-67
2020/12/05 10:14:30;;;;;;;17.73;14.48;;;4.40;99.90;;;;;;5032210;28;20029;-67
2020/12/05 10:16:57;;;;;;;20.73;17.02;;;4.30;99.90;;;;;;5033826;28;20139;-65
2020/12/05 10:19:22;;;;;;;17.85;14.65;;;4.20;99.90;;;;;;5033607;28;20026;-68
2020/12/05 10:21:49;;;;;;;18.60;14.27;;;4.20;99.90;;;;;;5033607;28;20033;-65
2020/12/05 10:24:16;;;;;;;20.63;15.02;;;4.30;99.90;;;;;;5032532;28;20028;-71
2020/12/05 10:26:53;;;;;;;18.48;14.07;;;4.20;99.90;;;;;;5033345;28;20105;-66
2020/12/05 10:29:20;;;;;;;19.50;13.68;;;4.10;99.90;;;;;;5035179;28;20435;-66
2020/12/05 10:31:46;;;;;;;21.52;16.55;;;4.10;99.90;;;;;;5043511;28;20053;-67
2020/12/05 10:34:13;;;;;;;20.83;13.93;;;4.10;99.90;;;;;;5041285;28;20026;-67
2020/12/05 10:36:39;;;;;;;20.27;14.85;;;4.10;99.90;;;;;;5035630;28;20028;-66
2020/12/05 10:39:06;;;;;;;19.45;14.20;;;4.00;99.90;;;;;;5037451;28;20021;-67
2020/12/05 10:41:33;;;;;;;18.02;13.63;;;3.90;99.90;;;;;;5038215;28;20033;-67
2020/12/05 10:43:59;;;;;;;16.63;11.85;;;3.90;99.90;;;;;;5035947;28;20024;-67
2020/12/05 10:46:25;;;;;;;18.42;15.27;;;3.90;99.90;;;;;;5035438;28;20463;-68
2020/12/05 10:48:50;;;;;;;19.33;16.40;;;3.90;99.90;;;;;;5038088;28;20531;-66
2020/12/05 10:51:16;;;;;;;17.40;14.02;;;3.80;99.90;;;;;;5034429;28;20507;-66
2020/12/05 10:53:42;;;;;;;17.33;13.15;;;3.60;99.90;;;;;;5032731;28;20037;-66
2020/12/05 10:56:07;;;;;;;17.35;13.23;;;3.60;99.90;;;;;;5024683;28;20040;-66
2020/12/05 10:58:33;;;;;;;14.75;11.57;;;3.70;99.90;;;;;;5022549;28;20046;-67
2020/12/05 11:00:59;;;;;;;15.13;10.77;;;3.70;99.90;;;;;;5045407;28;20022;-67
2020/12/05 11:03:25;;;;;;;15.23;10.80;;;3.70;99.90;;;;;;5019112;28;20088;-66
2020/12/05 11:05:50;;;;;;;15.32;11.13;;;3.70;99.90;;;;;;5026296;28;20061;-66
2020/12/05 11:08:16;;;;;;;13.70;10.25;;;3.70;99.90;;;;;;5032363;28;20049;-65
2020/12/05 11:10:42;;;;;;;11.38;8.82;;;3.80;99.90;;;;;;5032203;28;20501;-67
2020/12/05 11:13:07;;;;;;;10.88;8.95;;;3.90;99.90;;;;;;5031750;28;20446;-68
2020/12/05 11:15:33;;;;;;;10.88;9.02;;;4.00;99.90;;;;;;5032013;28;20029;-66
2020/12/05 11:17:58;;;;;;;10.88;8.70;;;4.10;99.90;;;;;;5030052;28;20021;-66
2020/12/05 11:20:24;;;;;;;12.48;10.20;;;4.10;99.90;;;;;;5031571;28;20044;-66
2020/12/05 11:22:50;;;;;;;15.15;10.55;;;4.20;99.90;;;;;;5031080;28;20045;-66
2020/12/05 11:25:16;;;;;;;12.85;10.48;;;4.30;99.90;;;;;;5032191;28;20025;-66
2020/12/05 11:27:41;;;;;;;10.77;9.48;;;4.30;99.90;;;;;;5031983;28;20033;-65
2020/12/05 11:30:08;;;;;;;11.82;9.68;;;4.30;99.90;;;;;;5031507;28;20121;-69
2020/12/05 11:32:33;;;;;;;11.95;9.52;;;4.30;99.90;;;;;;5031961;28;20060;-69
2020/12/05 11:34:59;;;;;;;13.00;10.43;;;4.20;99.90;;;;;;5045736;28;20060;-70
2020/12/05 11:37:25;;;;;;;14.10;11.15;;;4.30;99.90;;;;;;5032041;28;20032;-71
2020/12/05 11:39:50;;;;;;;11.60;9.95;;;4.30;99.90;;;;;;5031862;28;20037;-70
2020/12/05 11:42:16;;;;;;;12.88;9.98;;;4.30;99.90;;;;;;5030499;28;20411;-70
2020/12/05 11:44:42;;;;;;;15.23;11.50;;;4.30;99.90;;;;;;5030361;28;20123;-71
2020/12/05 11:47:07;;;;;;;14.40;10.60;;;4.30;99.90;;;;;;5031659;28;20036;-69
2020/12/05 11:49:33;;;;;;;14.32;10.27;;;4.30;99.90;;;;;;5031686;28;20025;-71
2020/12/05 11:51:59;;;;;;;12.02;9.40;;;4.30;99.90;;;;;;5031745;28;20141;-71
2020/12/05 11:54:25;;;;;;;13.43;9.90;;;4.20;99.90;;;;;;5030660;28;20427;-71
2020/12/05 11:56:51;;;;;;;12.98;9.32;;;4.20;99.90;;;;;;5031934;28;20021;-71
2020/12/05 11:59:16;;;;;;;11.95;10.00;;;4.20;99.90;;;;;;5031196;28;20048;-71
2020/12/05 12:01:42;;;;;;;10.85;9.25;;;4.20;99.90;;;;;;5031202;28;20018;-70
2020/12/05 12:04:08;;;;;;;12.00;9.63;;;4.20;99.90;;;;;;5030505;28;20492;-70
2020/12/05 12:06:34;;;;;;;10.45;8.90;;;4.20;99.90;;;;;;5031155;28;20430;-71
2020/12/05 12:09:00;;;;;;;11.18;9.02;;;4.20;99.90;;;;;;5031447;28;20021;-70
2020/12/05 12:11:25;;;;;;;10.93;8.75;;;4.30;99.90;;;;;;5032388;28;20025;-71
2020/12/05 12:13:51;;;;;;;12.52;9.32;;;4.30;99.90;;;;;;5030281;28;20112;-71
2020/12/05 12:16:17;;;;;;;12.77;9.30;;;4.30;99.90;;;;;;5030343;28;20064;-71
2020/12/05 12:18:43;;;;;;;11.38;9.88;;;4.30;99.90;;;;;;5031016;28;20164;-71
2020/12/05 12:21:09;;;;;;;12.00;9.65;;;4.30;99.90;;;;;;5031311;28;20332;-70
2020/12/05 12:23:35;;;;;;;14.48;12.75;;;4.30;99.90;;;;;;5030308;28;20021;-70
2020/12/05 12:26:01;;;;;;;12.65;11.05;;;4.30;99.90;;;;;;5031533;28;20479;-70
2020/12/05 12:28:26;;;;;;;12.70;10.68;;;4.40;99.90;;;;;;5031135;28;20439;-71
2020/12/05 12:30:52;;;;;;;14.20;10.05;;;4.40;99.90;;;;;;5028870;28;20038;-71
2020/12/05 12:33:18;;;;;;;13.70;10.32;;;4.40;99.90;;;;;;5013547;28;20032;-71
2020/12/05 12:35:44;;;;;;;14.23;11.43;;;4.40;99.90;;;;;;5024972;28;20105;-72
2020/12/05 12:38:11;;;;;;;16.25;12.35;;;4.40;99.90;;;;;;5028203;28;20021;-71
2020/12/05 12:40:36;;;;;;;13.40;11.80;;;4.40;99.90;;;;;;5022363;28;20034;-71
2020/12/05 12:43:02;;;;;;;13.32;11.35;;;4.50;99.90;;;;;;5009492;28;20543;-71